sensor_id;sensor_type;location;lat;lon;timestamp;noise_LAeq;noise_LA_min;noise_LA_max;noise_LA01;noise_LA95
81666;Laerm;71083;51.796;10.952;2023-08-30T00:01:42;29.19;28.19;30.58;;
81666;Laerm;71083;51.796;10.952;2023-08-30T00:04:08;30.01;28.15;37.24;;
81666;Laerm;71083;51.796;10.952;2023-08-30T00:06:33;34.80;28.02;46.73;;
81666;Laerm;71083;51.796;10.952;2023-08-30T00:08:58;52.04;28.05;69.85;;
81666;Laerm;71083;51.796;10.952;2023-08-30T00:11:24;29.13;28.15;32.84;;
81666;Laerm;71083;51.796;10.952;2023-08-30T00:13:49;29.05;27.98;31.94;;
81666;Laerm;71083;51.796;10.952;2023-08-30T00:16:15;28.79;28.02;31.21;;
81666;Laerm;71083;51.796;10.952;2023-08-30T00:18:42;29.35;28.09;32.37;;
81666;Laerm;71083;51.796;10.952;2023-08-30T00:21:07;60.59;27.93;79.37;;
81666;Laerm;71083;51.796;10.952;2023-08-30T00:23:32;52.82;28.24;71.56;;
81666;Laerm;71083;51.796;10.952;2023-08-30T00:25:58;56.72;28.06;69.80;;
81666;Laerm;71083;51.796;10.952;2023-08-30T00:28:23;36.07;27.83;49.63;;
81666;Laerm;71083;51.796;10.952;2023-08-30T00:30:54;33.47;27.82;44.07;;
81666;Laerm;71083;51.796;10.952;2023-08-30T00:33:20;55.22;27.87;72.54;;
81666;Laerm;71083;51.796;10.952;2023-08-30T00:35:46;32.68;27.94;48.49;;
81666;Laerm;71083;51.796;10.952;2023-08-30T00:38:11;35.25;27.97;48.07;;
81666;Laerm;71083;51.796;10.952;2023-08-30T00:40:39;28.91;27.95;30.49;;
81666;Laerm;71083;51.796;10.952;2023-08-30T00:43:05;28.88;28.00;30.74;;
81666;Laerm;71083;51.796;10.952;2023-08-30T00:45:31;28.80;28.10;30.38;;
81666;Laerm;71083;51.796;10.952;2023-08-30T00:47:57;32.03;28.19;42.42;;
81666;Laerm;71083;51.796;10.952;2023-08-30T00:50:22;57.50;28.34;72.75;;
81666;Laerm;71083;51.796;10.952;2023-08-30T00:52:48;53.85;28.35;70.01;;
81666;Laerm;71083;51.796;10.952;2023-08-30T00:55:13;55.61;28.12;74.97;;
81666;Laerm;71083;51.796;10.952;2023-08-30T00:57:40;56.77;28.31;75.27;;
81666;Laerm;71083;51.796;10.952;2023-08-30T01:00:06;34.80;28.02;48.88;;
81666;Laerm;71083;51.796;10.952;2023-08-30T01:02:31;30.54;28.56;37.40;;
81666;Laerm;71083;51.796;10.952;2023-08-30T01:04:57;35.74;28.14;46.79;;
81666;Laerm;71083;51.796;10.952;2023-08-30T01:07:23;53.20;28.10;69.35;;
81666;Laerm;71083;51.796;10.952;2023-08-30T01:09:48;49.80;28.16;65.29;;
81666;Laerm;71083;51.796;10.952;2023-08-30T01:12:17;37.05;27.92;51.16;;
81666;Laerm;71083;51.796;10.952;2023-08-30T01:14:48;34.17;27.89;46.57;;
81666;Laerm;71083;51.796;10.952;2023-08-30T01:17:17;28.81;28.02;30.54;;
81666;Laerm;71083;51.796;10.952;2023-08-30T01:22:16;55.27;28.43;72.99;;
81666;Laerm;71083;51.796;10.952;2023-08-30T01:27:20;40.43;28.30;56.79;;
81666;Laerm;71083;51.796;10.952;2023-08-30T01:29:45;60.00;29.19;75.57;;
81666;Laerm;71083;51.796;10.952;2023-08-30T01:32:11;55.19;28.72;73.96;;
81666;Laerm;71083;51.796;10.952;2023-08-30T01:34:37;59.72;28.69;77.13;;
81666;Laerm;71083;51.796;10.952;2023-08-30T01:37:04;46.58;28.60;66.35;;
81666;Laerm;71083;51.796;10.952;2023-08-30T01:39:31;50.81;28.43;68.56;;
81666;Laerm;71083;51.796;10.952;2023-08-30T01:41:57;53.51;28.61;69.13;;
81666;Laerm;71083;51.796;10.952;2023-08-30T01:44:26;52.80;28.42;69.78;;
81666;Laerm;71083;51.796;10.952;2023-08-30T01:46:51;33.58;28.27;55.87;;
81666;Laerm;71083;51.796;10.952;2023-08-30T01:49:16;42.33;28.44;53.29;;
81666;Laerm;71083;51.796;10.952;2023-08-30T01:51:42;59.49;28.46;71.98;;
81666;Laerm;71083;51.796;10.952;2023-08-30T01:54:07;54.64;29.39;69.94;;
81666;Laerm;71083;51.796;10.952;2023-08-30T01:56:34;54.83;28.29;69.04;;
81666;Laerm;71083;51.796;10.952;2023-08-30T01:58:59;40.39;28.73;54.07;;
81666;Laerm;71083;51.796;10.952;2023-08-30T02:01:25;57.98;29.20;70.81;;
81666;Laerm;71083;51.796;10.952;2023-08-30T02:03:50;57.81;28.91;72.42;;
81666;Laerm;71083;51.796;10.952;2023-08-30T02:06:21;51.57;28.99;64.95;;
81666;Laerm;71083;51.796;10.952;2023-08-30T02:08:50;61.07;28.75;75.50;;
81666;Laerm;71083;51.796;10.952;2023-08-30T02:11:19;54.76;28.86;69.46;;
81666;Laerm;71083;51.796;10.952;2023-08-30T02:13:47;61.20;28.98;75.09;;
81666;Laerm;71083;51.796;10.952;2023-08-30T02:16:13;42.56;28.73;58.06;;
81666;Laerm;71083;51.796;10.952;2023-08-30T02:18:39;62.54;31.51;75.71;;
81666;Laerm;71083;51.796;10.952;2023-08-30T02:21:05;54.93;29.01;69.87;;
81666;Laerm;71083;51.796;10.952;2023-08-30T02:23:30;59.46;30.55;73.44;;
81666;Laerm;71083;51.796;10.952;2023-08-30T02:25:55;63.57;29.25;82.98;;
81666;Laerm;71083;51.796;10.952;2023-08-30T02:28:21;59.19;29.94;76.18;;
81666;Laerm;71083;51.796;10.952;2023-08-30T02:30:46;63.50;30.32;76.83;;
81666;Laerm;71083;51.796;10.952;2023-08-30T02:33:11;57.28;29.40;70.63;;
81666;Laerm;71083;51.796;10.952;2023-08-30T02:35:37;61.58;30.18;74.43;;
81666;Laerm;71083;51.796;10.952;2023-08-30T02:38:02;51.90;29.12;67.94;;
81666;Laerm;71083;51.796;10.952;2023-08-30T02:40:30;50.96;30.59;67.82;;
81666;Laerm;71083;51.796;10.952;2023-08-30T02:42:55;61.08;31.80;76.77;;
81666;Laerm;71083;51.796;10.952;2023-08-30T02:45:20;63.40;31.67;76.44;;
81666;Laerm;71083;51.796;10.952;2023-08-30T02:47:47;63.93;32.89;79.87;;
81666;Laerm;71083;51.796;10.952;2023-08-30T02:50:13;61.92;36.84;71.70;;
81666;Laerm;71083;51.796;10.952;2023-08-30T02:52:38;60.67;30.82;75.37;;
81666;Laerm;71083;51.796;10.952;2023-08-30T02:55:03;62.67;31.11;76.52;;
81666;Laerm;71083;51.796;10.952;2023-08-30T02:57:29;61.94;31.94;75.94;;
81666;Laerm;71083;51.796;10.952;2023-08-30T02:59:54;59.66;33.90;71.23;;
81666;Laerm;71083;51.796;10.952;2023-08-30T03:02:19;61.89;31.37;73.11;;
81666;Laerm;71083;51.796;10.952;2023-08-30T03:04:45;58.25;31.00;71.20;;
81666;Laerm;71083;51.796;10.952;2023-08-30T03:07:10;61.27;35.77;78.46;;
81666;Laerm;71083;51.796;10.952;2023-08-30T03:09:35;62.63;39.50;73.71;;
81666;Laerm;71083;51.796;10.952;2023-08-30T03:12:01;60.84;40.02;70.58;;
81666;Laerm;71083;51.796;10.952;2023-08-30T03:14:26;62.48;38.09;74.24;;
81666;Laerm;71083;51.796;10.952;2023-08-30T03:16:51;61.53;33.23;73.46;;
81666;Laerm;71083;51.796;10.952;2023-08-30T03:19:17;65.60;37.64;78.08;;
81666;Laerm;71083;51.796;10.952;2023-08-30T03:21:42;65.70;37.66;77.38;;
81666;Laerm;71083;51.796;10.952;2023-08-30T03:24:08;66.61;42.06;75.26;;
81666;Laerm;71083;51.796;10.952;2023-08-30T03:26:33;63.12;38.52;74.57;;
81666;Laerm;71083;51.796;10.952;2023-08-30T03:28:58;65.59;40.99;75.30;;
81666;Laerm;71083;51.796;10.952;2023-08-30T03:31:24;66.58;42.99;76.35;;
81666;Laerm;71083;51.796;10.952;2023-08-30T03:33:49;65.11;44.68;78.08;;
81666;Laerm;71083;51.796;10.952;2023-08-30T03:36:15;63.70;44.47;73.53;;
81666;Laerm;71083;51.796;10.952;2023-08-30T03:38:41;64.66;40.75;73.21;;
81666;Laerm;71083;51.796;10.952;2023-08-30T03:41:08;64.23;40.65;73.31;;
81666;Laerm;71083;51.796;10.952;2023-08-30T03:43:33;66.10;40.91;74.76;;
81666;Laerm;71083;51.796;10.952;2023-08-30T03:46:01;65.18;42.20;75.78;;
81666;Laerm;71083;51.796;10.952;2023-08-30T03:48:27;64.66;43.27;73.71;;
81666;Laerm;71083;51.796;10.952;2023-08-30T03:50:54;65.30;52.16;76.02;;
81666;Laerm;71083;51.796;10.952;2023-08-30T03:53:19;65.77;40.25;76.51;;
81666;Laerm;71083;51.796;10.952;2023-08-30T03:55:44;62.01;39.16;72.59;;
81666;Laerm;71083;51.796;10.952;2023-08-30T03:58:10;66.55;46.54;77.86;;
81666;Laerm;71083;51.796;10.952;2023-08-30T04:00:36;63.23;41.76;70.78;;
81666;Laerm;71083;51.796;10.952;2023-08-30T04:03:01;64.99;38.17;78.39;;
81666;Laerm;71083;51.796;10.952;2023-08-30T04:05:26;61.35;38.36;75.34;;
81666;Laerm;71083;51.796;10.952;2023-08-30T04:07:52;66.81;45.84;74.73;;
81666;Laerm;71083;51.796;10.952;2023-08-30T04:10:17;64.82;41.38;80.94;;
81666;Laerm;71083;51.796;10.952;2023-08-30T04:12:42;68.11;51.36;80.10;;
81666;Laerm;71083;51.796;10.952;2023-08-30T04:15:08;66.81;47.76;76.14;;
81666;Laerm;71083;51.796;10.952;2023-08-30T04:17:34;64.54;44.84;73.96;;
81666;Laerm;71083;51.796;10.952;2023-08-30T04:19:59;66.02;40.65;75.21;;
81666;Laerm;71083;51.796;10.952;2023-08-30T04:22:25;65.95;38.11;76.13;;
81666;Laerm;71083;51.796;10.952;2023-08-30T04:24:51;68.50;47.92;79.48;;
81666;Laerm;71083;51.796;10.952;2023-08-30T04:27:16;67.98;43.35;79.43;;
81666;Laerm;71083;51.796;10.952;2023-08-30T04:29:42;64.20;43.90;73.11;;
81666;Laerm;71083;51.796;10.952;2023-08-30T04:32:10;67.29;44.59;77.41;;
81666;Laerm;71083;51.796;10.952;2023-08-30T04:34:35;68.09;47.11;76.99;;
81666;Laerm;71083;51.796;10.952;2023-08-30T04:37:00;66.58;48.06;77.54;;
81666;Laerm;71083;51.796;10.952;2023-08-30T04:39:26;65.65;47.32;77.25;;
81666;Laerm;71083;51.796;10.952;2023-08-30T04:41:51;69.11;55.96;78.64;;
81666;Laerm;71083;51.796;10.952;2023-08-30T04:44:17;67.01;50.41;75.35;;
81666;Laerm;71083;51.796;10.952;2023-08-30T04:46:44;67.31;52.12;75.68;;
81666;Laerm;71083;51.796;10.952;2023-08-30T04:49:09;65.75;46.18;75.25;;
81666;Laerm;71083;51.796;10.952;2023-08-30T04:51:34;67.03;51.62;74.53;;
81666;Laerm;71083;51.796;10.952;2023-08-30T04:54:00;67.59;48.17;81.62;;
81666;Laerm;71083;51.796;10.952;2023-08-30T04:56:25;69.61;48.38;82.26;;
81666;Laerm;71083;51.796;10.952;2023-08-30T04:58:50;69.20;45.20;79.30;;
81666;Laerm;71083;51.796;10.952;2023-08-30T05:01:16;66.50;47.55;80.30;;
81666;Laerm;71083;51.796;10.952;2023-08-30T05:03:42;68.16;55.34;75.80;;
81666;Laerm;71083;51.796;10.952;2023-08-30T05:06:07;69.24;48.56;82.23;;
81666;Laerm;71083;51.796;10.952;2023-08-30T05:08:32;65.99;44.87;75.62;;
81666;Laerm;71083;51.796;10.952;2023-08-30T05:10:58;68.01;49.49;77.51;;
81666;Laerm;71083;51.796;10.952;2023-08-30T05:13:23;68.61;53.80;79.99;;
81666;Laerm;71083;51.796;10.952;2023-08-30T05:15:48;66.61;44.80;73.75;;
81666;Laerm;71083;51.796;10.952;2023-08-30T05:18:14;69.02;55.02;77.68;;
81666;Laerm;71083;51.796;10.952;2023-08-30T05:20:40;68.15;50.88;75.45;;
81666;Laerm;71083;51.796;10.952;2023-08-30T05:23:05;69.32;49.27;79.32;;
81666;Laerm;71083;51.796;10.952;2023-08-30T05:25:30;67.76;49.75;79.18;;
81666;Laerm;71083;51.796;10.952;2023-08-30T05:27:56;67.82;46.51;81.88;;
81666;Laerm;71083;51.796;10.952;2023-08-30T05:30:21;69.06;48.61;77.13;;
81666;Laerm;71083;51.796;10.952;2023-08-30T05:32:47;68.00;46.83;79.13;;
81666;Laerm;71083;51.796;10.952;2023-08-30T05:35:12;68.56;50.39;74.63;;
81666;Laerm;71083;51.796;10.952;2023-08-30T05:37:37;69.63;49.14;79.74;;
81666;Laerm;71083;51.796;10.952;2023-08-30T05:40:03;68.42;44.27;76.68;;
81666;Laerm;71083;51.796;10.952;2023-08-30T05:42:29;69.83;50.60;79.92;;
81666;Laerm;71083;51.796;10.952;2023-08-30T05:44:54;67.04;54.75;75.05;;
81666;Laerm;71083;51.796;10.952;2023-08-30T05:47:20;69.11;46.84;84.85;;
81666;Laerm;71083;51.796;10.952;2023-08-30T05:49:45;67.92;50.34;82.35;;
81666;Laerm;71083;51.796;10.952;2023-08-30T05:52:11;69.58;46.97;82.80;;
81666;Laerm;71083;51.796;10.952;2023-08-30T05:54:36;67.36;44.95;77.63;;
81666;Laerm;71083;51.796;10.952;2023-08-30T05:57:01;67.76;44.78;81.02;;
81666;Laerm;71083;51.796;10.952;2023-08-30T05:59:27;67.62;41.54;79.38;;
81666;Laerm;71083;51.796;10.952;2023-08-30T06:01:53;68.61;51.84;74.77;;
81666;Laerm;71083;51.796;10.952;2023-08-30T06:04:18;67.64;48.76;83.36;;
81666;Laerm;71083;51.796;10.952;2023-08-30T06:06:43;68.45;43.12;83.48;;
81666;Laerm;71083;51.796;10.952;2023-08-30T06:09:09;67.35;50.23;75.19;;
81666;Laerm;71083;51.796;10.952;2023-08-30T06:11:34;67.40;44.16;79.48;;
81666;Laerm;71083;51.796;10.952;2023-08-30T06:13:59;68.12;52.06;79.63;;
81666;Laerm;71083;51.796;10.952;2023-08-30T06:16:25;67.72;41.56;82.23;;
81666;Laerm;71083;51.796;10.952;2023-08-30T06:18:50;69.48;45.45;84.30;;
81666;Laerm;71083;51.796;10.952;2023-08-30T06:21:15;66.36;45.88;75.10;;
81666;Laerm;71083;51.796;10.952;2023-08-30T06:23:41;69.35;47.39;81.60;;
81666;Laerm;71083;51.796;10.952;2023-08-30T06:26:06;66.51;48.46;75.50;;
81666;Laerm;71083;51.796;10.952;2023-08-30T06:28:32;66.69;42.35;74.69;;
81666;Laerm;71083;51.796;10.952;2023-08-30T06:30:57;67.01;45.13;73.96;;
81666;Laerm;71083;51.796;10.952;2023-08-30T06:33:22;68.33;44.92;79.35;;
81666;Laerm;71083;51.796;10.952;2023-08-30T06:35:48;66.51;46.55;79.46;;
81666;Laerm;71083;51.796;10.952;2023-08-30T06:38:15;68.12;55.22;78.20;;
81666;Laerm;71083;51.796;10.952;2023-08-30T06:40:44;67.93;41.99;75.88;;
81666;Laerm;71083;51.796;10.952;2023-08-30T06:43:10;65.71;42.88;74.57;;
81666;Laerm;71083;51.796;10.952;2023-08-30T06:45:35;68.05;49.98;77.09;;
81666;Laerm;71083;51.796;10.952;2023-08-30T06:48:00;67.04;47.50;79.71;;
81666;Laerm;71083;51.796;10.952;2023-08-30T06:50:26;65.34;44.61;73.61;;
81666;Laerm;71083;51.796;10.952;2023-08-30T06:52:51;68.41;53.86;80.84;;
81666;Laerm;71083;51.796;10.952;2023-08-30T06:55:16;66.33;42.13;75.35;;
81666;Laerm;71083;51.796;10.952;2023-08-30T06:57:46;68.92;55.80;77.53;;
81666;Laerm;71083;51.796;10.952;2023-08-30T07:00:12;69.49;56.49;79.78;;
81666;Laerm;71083;51.796;10.952;2023-08-30T07:02:37;69.54;57.38;86.48;;
81666;Laerm;71083;51.796;10.952;2023-08-30T07:05:03;69.71;58.45;80.30;;
81666;Laerm;71083;51.796;10.952;2023-08-30T07:07:30;69.48;57.86;79.17;;
81666;Laerm;71083;51.796;10.952;2023-08-30T07:09:55;71.25;52.70;83.39;;
81666;Laerm;71083;51.796;10.952;2023-08-30T07:12:20;68.47;44.34;79.82;;
81666;Laerm;71083;51.796;10.952;2023-08-30T07:14:46;68.22;48.21;77.83;;
81666;Laerm;71083;51.796;10.952;2023-08-30T07:17:11;70.32;49.09;83.12;;
81666;Laerm;71083;51.796;10.952;2023-08-30T07:19:36;68.09;47.78;82.11;;
81666;Laerm;71083;51.796;10.952;2023-08-30T07:22:02;67.16;46.09;77.94;;
81666;Laerm;71083;51.796;10.952;2023-08-30T07:24:28;67.14;51.83;82.40;;
81666;Laerm;71083;51.796;10.952;2023-08-30T07:26:53;65.87;44.20;76.11;;
81666;Laerm;71083;51.796;10.952;2023-08-30T07:29:18;68.11;52.06;74.38;;
81666;Laerm;71083;51.796;10.952;2023-08-30T07:31:44;68.42;44.56;85.89;;
81666;Laerm;71083;51.796;10.952;2023-08-30T07:34:09;66.41;47.23;78.63;;
81666;Laerm;71083;51.796;10.952;2023-08-30T07:36:34;67.40;50.60;75.64;;
81666;Laerm;71083;51.796;10.952;2023-08-30T07:39:00;65.50;48.68;74.58;;
81666;Laerm;71083;51.796;10.952;2023-08-30T07:41:27;68.50;52.43;81.65;;
81666;Laerm;71083;51.796;10.952;2023-08-30T07:43:52;66.86;49.43;74.49;;
81666;Laerm;71083;51.796;10.952;2023-08-30T07:46:18;65.70;52.14;75.18;;
81666;Laerm;71083;51.796;10.952;2023-08-30T07:48:43;68.16;56.13;75.63;;
81666;Laerm;71083;51.796;10.952;2023-08-30T07:51:08;66.47;49.09;80.81;;
81666;Laerm;71083;51.796;10.952;2023-08-30T07:53:34;65.17;52.49;74.25;;
81666;Laerm;71083;51.796;10.952;2023-08-30T07:55:59;67.16;50.13;73.21;;
81666;Laerm;71083;51.796;10.952;2023-08-30T07:58:27;65.66;50.37;73.41;;
81666;Laerm;71083;51.796;10.952;2023-08-30T08:00:52;68.37;51.67;77.40;;
81666;Laerm;71083;51.796;10.952;2023-08-30T08:03:21;66.71;50.53;75.78;;
81666;Laerm;71083;51.796;10.952;2023-08-30T08:05:47;66.30;52.76;73.60;;
81666;Laerm;71083;51.796;10.952;2023-08-30T08:08:12;65.31;51.03;72.15;;
81666;Laerm;71083;51.796;10.952;2023-08-30T08:10:37;66.16;51.64;73.80;;
81666;Laerm;71083;51.796;10.952;2023-08-30T08:13:03;65.69;44.96;73.19;;
81666;Laerm;71083;51.796;10.952;2023-08-30T08:15:31;67.77;48.90;77.26;;
81666;Laerm;71083;51.796;10.952;2023-08-30T08:17:57;67.45;55.31;74.53;;
81666;Laerm;71083;51.796;10.952;2023-08-30T08:20:22;65.85;50.93;74.52;;
81666;Laerm;71083;51.796;10.952;2023-08-30T08:22:48;66.53;43.65;75.56;;
81666;Laerm;71083;51.796;10.952;2023-08-30T08:25:13;65.79;48.83;72.01;;
81666;Laerm;71083;51.796;10.952;2023-08-30T08:27:39;67.52;51.47;78.59;;
81666;Laerm;71083;51.796;10.952;2023-08-30T08:30:04;69.15;49.60;80.22;;
81666;Laerm;71083;51.796;10.952;2023-08-30T08:32:30;68.42;52.01;77.95;;
81666;Laerm;71083;51.796;10.952;2023-08-30T08:34:56;70.83;48.39;92.72;;
81666;Laerm;71083;51.796;10.952;2023-08-30T08:37:21;66.02;52.18;73.40;;
81666;Laerm;71083;51.796;10.952;2023-08-30T08:39:47;68.12;56.15;76.09;;
81666;Laerm;71083;51.796;10.952;2023-08-30T08:42:18;66.56;53.87;72.76;;
81666;Laerm;71083;51.796;10.952;2023-08-30T08:44:44;67.55;49.28;78.51;;
81666;Laerm;71083;51.796;10.952;2023-08-30T08:47:11;68.38;52.96;76.55;;
81666;Laerm;71083;51.796;10.952;2023-08-30T08:49:36;69.72;58.61;79.35;;
81666;Laerm;71083;51.796;10.952;2023-08-30T08:52:02;69.36;50.67;79.71;;
81666;Laerm;71083;51.796;10.952;2023-08-30T08:54:28;69.96;48.34;81.00;;
81666;Laerm;71083;51.796;10.952;2023-08-30T08:56:54;68.68;51.29;81.86;;
81666;Laerm;71083;51.796;10.952;2023-08-30T08:59:20;66.79;46.74;83.86;;
81666;Laerm;71083;51.796;10.952;2023-08-30T09:01:46;68.03;51.15;75.38;;
81666;Laerm;71083;51.796;10.952;2023-08-30T09:04:12;66.97;51.01;76.66;;
81666;Laerm;71083;51.796;10.952;2023-08-30T09:06:38;70.04;57.62;79.74;;
81666;Laerm;71083;51.796;10.952;2023-08-30T09:09:05;67.82;52.26;77.08;;
81666;Laerm;71083;51.796;10.952;2023-08-30T09:11:31;67.33;51.67;79.29;;
81666;Laerm;71083;51.796;10.952;2023-08-30T09:13:56;69.09;48.36;81.78;;
81666;Laerm;71083;51.796;10.952;2023-08-30T09:16:22;67.22;42.03;75.44;;
81666;Laerm;71083;51.796;10.952;2023-08-30T09:19:03;67.17;53.87;77.05;;
81666;Laerm;71083;51.796;10.952;2023-08-30T09:21:28;67.59;53.52;74.84;;
81666;Laerm;71083;51.796;10.952;2023-08-30T09:24:00;67.72;50.99;78.11;;
81666;Laerm;71083;51.796;10.952;2023-08-30T09:26:27;68.01;52.21;81.11;;
81666;Laerm;71083;51.796;10.952;2023-08-30T09:28:53;66.88;49.00;79.61;;
81666;Laerm;71083;51.796;10.952;2023-08-30T09:31:19;69.06;52.24;85.77;;
81666;Laerm;71083;51.796;10.952;2023-08-30T09:33:45;68.20;48.75;78.13;;
81666;Laerm;71083;51.796;10.952;2023-08-30T09:36:13;67.76;53.24;77.66;;
81666;Laerm;71083;51.796;10.952;2023-08-30T09:38:38;69.10;52.97;89.34;;
81666;Laerm;71083;51.796;10.952;2023-08-30T09:41:04;68.92;55.75;80.25;;
81666;Laerm;71083;51.796;10.952;2023-08-30T09:43:29;67.11;50.14;74.85;;
81666;Laerm;71083;51.796;10.952;2023-08-30T09:45:57;68.30;45.15;83.54;;
81666;Laerm;71083;51.796;10.952;2023-08-30T09:48:23;67.47;51.47;74.73;;
81666;Laerm;71083;51.796;10.952;2023-08-30T09:50:53;68.00;50.99;79.07;;
81666;Laerm;71083;51.796;10.952;2023-08-30T09:53:20;67.60;46.71;79.85;;
81666;Laerm;71083;51.796;10.952;2023-08-30T09:55:46;71.28;50.48;84.23;;
81666;Laerm;71083;51.796;10.952;2023-08-30T09:58:13;68.54;50.97;78.63;;
81666;Laerm;71083;51.796;10.952;2023-08-30T10:00:39;67.56;50.37;80.76;;
81666;Laerm;71083;51.796;10.952;2023-08-30T10:03:04;67.11;51.33;72.91;;
81666;Laerm;71083;51.796;10.952;2023-08-30T10:05:30;67.05;50.67;79.21;;
81666;Laerm;71083;51.796;10.952;2023-08-30T10:07:56;65.67;46.92;73.63;;
81666;Laerm;71083;51.796;10.952;2023-08-30T10:10:24;68.05;47.16;75.31;;
81666;Laerm;71083;51.796;10.952;2023-08-30T10:12:50;68.90;47.87;82.47;;
81666;Laerm;71083;51.796;10.952;2023-08-30T10:15:16;68.84;50.55;78.95;;
81666;Laerm;71083;51.796;10.952;2023-08-30T10:17:44;67.61;48.07;77.61;;
81666;Laerm;71083;51.796;10.952;2023-08-30T10:20:10;67.42;42.33;74.84;;
81666;Laerm;71083;51.796;10.952;2023-08-30T10:22:37;66.12;42.24;75.66;;
81666;Laerm;71083;51.796;10.952;2023-08-30T10:25:04;67.47;52.80;75.11;;
81666;Laerm;71083;51.796;10.952;2023-08-30T10:27:31;67.52;50.74;76.92;;
81666;Laerm;71083;51.796;10.952;2023-08-30T10:29:58;68.18;49.93;75.45;;
81666;Laerm;71083;51.796;10.952;2023-08-30T10:32:24;68.35;48.82;79.33;;
81666;Laerm;71083;51.796;10.952;2023-08-30T10:34:50;66.96;43.19;75.06;;
81666;Laerm;71083;51.796;10.952;2023-08-30T10:37:16;67.38;50.22;74.49;;
81666;Laerm;71083;51.796;10.952;2023-08-30T10:39:47;67.20;46.38;74.42;;
81666;Laerm;71083;51.796;10.952;2023-08-30T10:42:13;69.66;50.98;84.94;;
81666;Laerm;71083;51.796;10.952;2023-08-30T10:44:57;65.48;36.87;78.46;;
81666;Laerm;71083;51.796;10.952;2023-08-30T10:47:29;68.34;52.82;78.13;;
81666;Laerm;71083;51.796;10.952;2023-08-30T10:49:59;67.57;41.66;76.74;;
81666;Laerm;71083;51.796;10.952;2023-08-30T10:52:26;66.98;53.26;74.42;;
81666;Laerm;71083;51.796;10.952;2023-08-30T10:54:51;67.70;50.87;74.75;;
81666;Laerm;71083;51.796;10.952;2023-08-30T10:57:20;68.46;50.84;81.11;;
81666;Laerm;71083;51.796;10.952;2023-08-30T11:00:05;68.19;52.99;77.70;;
81666;Laerm;71083;51.796;10.952;2023-08-30T11:02:32;66.21;43.05;73.32;;
81666;Laerm;71083;51.796;10.952;2023-08-30T11:04:58;68.13;50.58;79.06;;
81666;Laerm;71083;51.796;10.952;2023-08-30T11:07:26;65.89;47.26;75.69;;
81666;Laerm;71083;51.796;10.952;2023-08-30T11:09:52;69.29;51.14;77.65;;
81666;Laerm;71083;51.796;10.952;2023-08-30T11:12:19;68.27;48.80;80.35;;
81666;Laerm;71083;51.796;10.952;2023-08-30T11:14:47;70.01;54.10;82.41;;
81666;Laerm;71083;51.796;10.952;2023-08-30T11:17:12;67.85;55.08;77.06;;
81666;Laerm;71083;51.796;10.952;2023-08-30T11:19:38;68.54;50.11;81.32;;
81666;Laerm;71083;51.796;10.952;2023-08-30T11:22:03;67.88;45.08;79.60;;
81666;Laerm;71083;51.796;10.952;2023-08-30T11:24:28;66.46;54.27;73.30;;
81666;Laerm;71083;51.796;10.952;2023-08-30T11:26:54;66.96;49.87;77.03;;
81666;Laerm;71083;51.796;10.952;2023-08-30T11:29:20;68.35;51.78;83.19;;
81666;Laerm;71083;51.796;10.952;2023-08-30T11:31:45;68.15;46.50;76.57;;
81666;Laerm;71083;51.796;10.952;2023-08-30T11:34:11;65.44;45.58;73.92;;
81666;Laerm;71083;51.796;10.952;2023-08-30T11:36:37;69.08;51.38;84.47;;
81666;Laerm;71083;51.796;10.952;2023-08-30T11:39:03;66.93;45.20;75.10;;
81666;Laerm;71083;51.796;10.952;2023-08-30T11:41:28;69.15;44.57;80.90;;
81666;Laerm;71083;51.796;10.952;2023-08-30T11:43:54;66.75;43.74;76.10;;
81666;Laerm;71083;51.796;10.952;2023-08-30T11:46:20;68.59;57.62;81.01;;
81666;Laerm;71083;51.796;10.952;2023-08-30T11:48:46;68.05;54.73;76.72;;
81666;Laerm;71083;51.796;10.952;2023-08-30T11:51:12;67.73;55.87;74.92;;
81666;Laerm;71083;51.796;10.952;2023-08-30T11:53:38;67.27;48.41;75.48;;
81666;Laerm;71083;51.796;10.952;2023-08-30T11:56:06;68.72;50.85;76.55;;
81666;Laerm;71083;51.796;10.952;2023-08-30T11:58:33;67.69;49.38;79.49;;
81666;Laerm;71083;51.796;10.952;2023-08-30T12:00:58;68.25;53.17;80.31;;
81666;Laerm;71083;51.796;10.952;2023-08-30T12:03:26;67.13;49.20;76.62;;
81666;Laerm;71083;51.796;10.952;2023-08-30T12:05:58;68.49;53.59;79.36;;
81666;Laerm;71083;51.796;10.952;2023-08-30T12:08:25;67.69;52.34;73.50;;
81666;Laerm;71083;51.796;10.952;2023-08-30T12:10:51;69.02;55.91;82.71;;
81666;Laerm;71083;51.796;10.952;2023-08-30T12:13:34;67.76;45.76;76.65;;
81666;Laerm;71083;51.796;10.952;2023-08-30T12:16:00;68.85;51.41;78.66;;
81666;Laerm;71083;51.796;10.952;2023-08-30T12:18:26;70.16;49.89;84.19;;
81666;Laerm;71083;51.796;10.952;2023-08-30T12:20:59;66.98;50.16;80.28;;
81666;Laerm;71083;51.796;10.952;2023-08-30T12:23:26;68.32;52.66;76.46;;
81666;Laerm;71083;51.796;10.952;2023-08-30T12:26:12;70.20;47.29;86.98;;
81666;Laerm;71083;51.796;10.952;2023-08-30T12:28:40;67.66;40.40;77.15;;
81666;Laerm;71083;51.796;10.952;2023-08-30T12:31:06;67.80;56.79;77.21;;
81666;Laerm;71083;51.796;10.952;2023-08-30T12:33:34;67.71;47.43;75.16;;
81666;Laerm;71083;51.796;10.952;2023-08-30T12:36:00;70.58;51.37;87.85;;
81666;Laerm;71083;51.796;10.952;2023-08-30T12:38:25;69.61;50.34;77.31;;
81666;Laerm;71083;51.796;10.952;2023-08-30T12:40:51;67.99;57.42;74.09;;
81666;Laerm;71083;51.796;10.952;2023-08-30T12:43:17;67.63;46.61;74.35;;
81666;Laerm;71083;51.796;10.952;2023-08-30T12:45:43;68.45;54.33;76.59;;
81666;Laerm;71083;51.796;10.952;2023-08-30T12:48:09;69.87;55.16;77.84;;
81666;Laerm;71083;51.796;10.952;2023-08-30T12:50:35;67.01;58.54;74.20;;
81666;Laerm;71083;51.796;10.952;2023-08-30T12:53:01;72.60;54.97;90.73;;
81666;Laerm;71083;51.796;10.952;2023-08-30T12:55:27;65.90;49.32;74.41;;
81666;Laerm;71083;51.796;10.952;2023-08-30T12:57:52;68.99;55.07;76.99;;
81666;Laerm;71083;51.796;10.952;2023-08-30T13:00:20;69.61;46.70;80.09;;
81666;Laerm;71083;51.796;10.952;2023-08-30T13:02:46;67.08;49.19;74.35;;
81666;Laerm;71083;51.796;10.952;2023-08-30T13:05:11;68.36;55.41;74.37;;
81666;Laerm;71083;51.796;10.952;2023-08-30T13:07:37;67.55;45.89;73.10;;
81666;Laerm;71083;51.796;10.952;2023-08-30T13:10:02;68.63;49.18;77.94;;
81666;Laerm;71083;51.796;10.952;2023-08-30T13:12:27;69.30;55.61;78.32;;
81666;Laerm;71083;51.796;10.952;2023-08-30T13:14:54;68.33;56.22;76.92;;
81666;Laerm;71083;51.796;10.952;2023-08-30T13:17:19;68.44;50.51;76.16;;
81666;Laerm;71083;51.796;10.952;2023-08-30T13:19:45;67.79;54.16;80.51;;
81666;Laerm;71083;51.796;10.952;2023-08-30T13:22:10;69.23;54.33;82.52;;
81666;Laerm;71083;51.796;10.952;2023-08-30T13:24:36;68.07;46.87;77.52;;
81666;Laerm;71083;51.796;10.952;2023-08-30T13:27:01;67.94;52.81;74.64;;
81666;Laerm;71083;51.796;10.952;2023-08-30T13:29:27;68.09;53.43;77.50;;
81666;Laerm;71083;51.796;10.952;2023-08-30T13:31:53;67.64;51.09;75.24;;